createdAt,value
2022-09-15T00:01:12.016Z,70.40
2022-09-15T00:03:39.900Z,70.10
2022-09-15T00:06:07.456Z,70.20
2022-09-15T00:08:34.588Z,70.10
2022-09-15T00:11:25.626Z,70.30
2022-09-15T00:13:53.914Z,70.00
2022-09-15T00:16:24.127Z,69.90
2022-09-15T00:18:51.388Z,70.00
2022-09-15T00:21:23.827Z,69.90
2022-09-15T00:23:51.283Z,69.80
2022-09-15T00:26:25.756Z,69.70
2022-09-15T00:28:53.358Z,69.80
2022-09-15T00:31:22.465Z,69.80
2022-09-15T00:33:53.331Z,69.90
2022-09-15T00:36:22.149Z,69.50
2022-09-15T00:38:49.652Z,69.40
2022-09-15T00:41:20.022Z,69.60
2022-09-15T00:43:57.223Z,69.50
2022-09-15T00:46:34.761Z,69.40
2022-09-15T00:49:20.654Z,69.10
2022-09-15T00:52:09.925Z,69.20
2022-09-15T00:54:58.790Z,69.10
2022-09-15T00:57:31.091Z,68.90
2022-09-15T01:00:02.608Z,69.40
2022-09-15T01:02:33.723Z,69.30
2022-09-15T01:05:04.775Z,69.30
2022-09-15T01:07:56.164Z,69.50
2022-09-15T01:10:27.140Z,69.90
2022-09-15T01:13:10.962Z,69.80
2022-09-15T01:16:34.671Z,70.10
2022-09-15T01:19:47.469Z,70.20
2022-09-15T01:22:36.150Z,70.80
2022-09-15T01:25:14.563Z,70.20
2022-09-15T01:28:17.346Z,70.30
2022-09-15T01:31:03.537Z,70.50
2022-09-15T01:34:06.345Z,70.70
2022-09-15T01:36:38.944Z,70.60
2022-09-15T01:39:20.179Z,70.60
2022-09-15T01:42:02.123Z,70.70
2022-09-15T01:44:37.709Z,71.00
2022-09-15T01:47:10.626Z,70.80
2022-09-15T01:49:55.155Z,70.90
2022-09-15T01:52:24.466Z,71.00
2022-09-15T01:55:00.276Z,71.00
2022-09-15T01:57:28.143Z,71.20
2022-09-15T01:59:56.435Z,71.60
2022-09-15T02:02:42.903Z,71.20
2022-09-15T02:05:42.547Z,71.30
2022-09-15T02:08:25.440Z,71.50
2022-09-15T02:11:13.849Z,71.40
2022-09-15T02:14:20.778Z,71.40
2022-09-15T02:16:53.550Z,71.50
2022-09-15T02:19:41.650Z,71.90
2022-09-15T02:22:27.865Z,71.60
2022-09-15T02:25:05.791Z,71.80
2022-09-15T02:27:44.263Z,71.40
2022-09-15T02:30:15.139Z,71.50
2022-09-15T02:32:56.722Z,71.40
2022-09-15T02:35:27.067Z,72.20
2022-09-15T02:37:56.216Z,71.50
2022-09-15T02:40:23.489Z,72.00
2022-09-15T02:42:56.894Z,71.50
2022-09-15T02:45:25.525Z,71.60
2022-09-15T02:47:52.633Z,71.60
2022-09-15T02:50:20.437Z,71.60
2022-09-15T02:52:47.355Z,71.60
2022-09-15T02:55:14.173Z,71.50
2022-09-15T02:57:40.954Z,71.60
2022-09-15T03:00:16.785Z,71.60
2022-09-15T03:02:47.309Z,71.50
2022-09-15T03:05:16.127Z,71.50
2022-09-15T03:07:43.418Z,71.60
2022-09-15T03:10:12.626Z,71.50
2022-09-15T03:12:40.864Z,71.30
2022-09-15T03:15:10.659Z,71.40
2022-09-15T03:17:41.456Z,71.40
2022-09-15T03:20:11.366Z,71.40
2022-09-15T03:22:38.437Z,71.40
2022-09-15T03:25:06.588Z,71.30
2022-09-15T03:27:35.439Z,71.40
2022-09-15T03:30:02.787Z,71.40
2022-09-15T03:32:29.669Z,71.40
2022-09-15T03:34:58.584Z,71.40
2022-09-15T03:37:26.536Z,71.40
2022-09-15T03:39:53.453Z,71.40
2022-09-15T03:42:20.777Z,71.90
2022-09-15T03:44:47.565Z,71.20
2022-09-15T03:47:14.443Z,71.30
2022-09-15T03:49:41.246Z,71.30
2022-09-15T03:52:08.239Z,71.20
2022-09-15T03:54:35.493Z,71.30
2022-09-15T03:57:03.468Z,71.50
2022-09-15T03:59:30.261Z,71.50
2022-09-15T04:01:57.148Z,71.40
2022-09-15T04:04:24.009Z,71.40
2022-09-15T04:06:50.835Z,71.40
2022-09-15T04:09:20.265Z,71.20
2022-09-15T04:11:47.812Z,71.30
2022-09-15T04:14:14.708Z,71.30
2022-09-15T04:16:41.610Z,71.50
2022-09-15T04:19:08.534Z,71.50
2022-09-15T04:21:35.359Z,71.60
2022-09-15T04:24:04.667Z,71.50
2022-09-15T04:26:35.422Z,71.40
2022-09-15T04:29:05.287Z,71.60
2022-09-15T04:31:33.840Z,71.70
2022-09-15T04:34:00.800Z,71.70
2022-09-15T04:36:29.455Z,71.80
2022-09-15T04:38:57.292Z,71.90
2022-09-15T04:41:26.348Z,71.90
2022-09-15T04:43:54.183Z,72.20
2022-09-15T04:46:21.899Z,72.00
2022-09-15T04:48:49.320Z,72.10
2022-09-15T04:51:21.379Z,72.10
2022-09-15T04:53:49.338Z,72.40
2022-09-15T04:56:21.381Z,72.10
2022-09-15T04:59:03.199Z,72.10
2022-09-15T05:01:35.087Z,72.40
2022-09-15T05:04:04.035Z,72.10
2022-09-15T05:06:31.146Z,72.10
2022-09-15T05:08:58.556Z,72.20
2022-09-15T05:11:27.164Z,72.20
2022-09-15T05:13:54.834Z,72.20
2022-09-15T05:16:24.159Z,72.30
2022-09-15T05:18:54.106Z,72.20
2022-09-15T05:21:23.902Z,72.00
2022-09-15T05:23:52.041Z,72.30
2022-09-15T05:26:30.140Z,72.30
2022-09-15T05:28:57.476Z,72.70
2022-09-15T05:31:32.007Z,72.20
2022-09-15T05:34:03.034Z,72.60
2022-09-15T05:36:30.574Z,72.60
2022-09-15T05:38:58.068Z,72.60
2022-09-15T05:41:26.902Z,72.60
2022-09-15T05:43:56.987Z,72.40
2022-09-15T05:46:29.081Z,72.20
2022-09-15T05:48:58.140Z,72.30
2022-09-15T05:51:25.168Z,72.40
2022-09-15T05:53:52.341Z,72.50
2022-09-15T05:56:20.152Z,72.50
2022-09-15T05:58:48.913Z,72.30
2022-09-15T06:01:20.723Z,72.40
2022-09-15T06:03:48.667Z,72.50
2022-09-15T06:06:16.520Z,72.40
2022-09-15T06:08:55.323Z,72.40
2022-09-15T06:11:30.759Z,72.40
2022-09-15T06:14:03.147Z,72.50
2022-09-15T06:16:34.931Z,72.40
2022-09-15T06:19:02.146Z,72.50
2022-09-15T06:21:32.225Z,72.40
2022-09-15T06:24:03.486Z,72.40
2022-09-15T06:26:30.404Z,72.50
2022-09-15T06:29:00.910Z,72.50
2022-09-15T06:31:31.479Z,72.50
2022-09-15T06:33:59.614Z,72.70
2022-09-15T06:36:29.662Z,72.70
2022-09-15T06:38:57.243Z,72.80
2022-09-15T06:41:24.032Z,72.80
2022-09-15T06:43:50.926Z,72.80
2022-09-15T06:46:25.152Z,72.60
2022-09-15T06:48:53.592Z,72.60
2022-09-15T06:51:24.610Z,72.60
2022-09-15T06:53:53.423Z,72.70
2022-09-15T06:56:23.467Z,72.70
2022-09-15T06:58:50.561Z,72.80
2022-09-15T07:01:29.872Z,73.00
2022-09-15T07:04:00.873Z,73.00
2022-09-15T07:06:30.155Z,72.90
2022-09-15T07:08:58.524Z,72.90
2022-09-15T07:11:26.442Z,73.00
2022-09-15T07:13:53.390Z,73.10
2022-09-15T07:16:21.672Z,73.10
2022-09-15T07:18:49.171Z,73.30
2022-09-15T07:21:20.097Z,73.40
2022-09-15T07:23:48.860Z,73.40
2022-09-15T07:26:24.326Z,73.50
2022-09-15T07:28:55.820Z,73.50
2022-09-15T07:31:25.665Z,73.50
2022-09-15T07:33:53.334Z,73.60
2022-09-15T07:36:20.869Z,73.60
2022-09-15T07:38:49.967Z,73.70
2022-09-15T07:41:18.580Z,73.80
2022-09-15T07:43:50.961Z,73.60
2022-09-15T07:46:20.412Z,73.50
2022-09-15T07:48:49.903Z,73.50
2022-09-15T07:51:18.005Z,73.90
2022-09-15T07:53:47.200Z,73.40
2022-09-15T07:56:14.598Z,73.50
2022-09-15T07:58:41.403Z,73.50
2022-09-15T08:01:14.772Z,73.50
2022-09-15T08:03:44.238Z,73.40
2022-09-15T08:06:12.445Z,73.60
2022-09-15T08:08:40.611Z,73.70
2022-09-15T08:11:18.850Z,73.70
2022-09-15T08:13:51.109Z,74.00
2022-09-15T08:16:24.376Z,73.70
2022-09-15T08:18:54.078Z,73.80
2022-09-15T08:21:22.450Z,74.10
2022-09-15T08:23:59.764Z,74.20
2022-09-15T08:26:28.989Z,74.50
2022-09-15T08:28:56.101Z,74.20
2022-09-15T08:31:24.356Z,74.10
2022-09-15T08:33:53.902Z,73.90
2022-09-15T08:36:21.657Z,73.80
2022-09-15T08:38:48.849Z,73.60
2022-09-15T08:41:31.207Z,73.50
2022-09-15T08:44:37.759Z,73.20
2022-09-15T08:47:29.602Z,73.00
2022-09-15T08:50:20.559Z,72.70
2022-09-15T08:53:12.813Z,72.60
2022-09-15T08:55:49.412Z,72.40
2022-09-15T08:58:24.599Z,72.50
2022-09-15T09:01:18.305Z,72.50
2022-09-15T09:04:28.399Z,72.20
2022-09-15T09:07:20.199Z,72.40
2022-09-15T09:10:09.055Z,72.30
2022-09-15T09:12:44.689Z,72.20
2022-09-15T09:15:49.647Z,72.50
2022-09-15T09:19:00.092Z,72.60
2022-09-15T09:21:37.644Z,72.60
2022-09-15T09:24:42.095Z,72.50
2022-09-15T09:27:20.081Z,72.20
2022-09-15T09:29:51.938Z,72.60
2022-09-15T09:32:38.603Z,72.60
2022-09-15T09:35:18.707Z,72.90
2022-09-15T09:37:45.685Z,73.30
2022-09-15T09:40:14.996Z,73.20
2022-09-15T09:42:43.889Z,73.50
2022-09-15T09:45:19.586Z,73.50
2022-09-15T09:47:46.475Z,73.60
2022-09-15T09:50:45.284Z,73.50
2022-09-15T09:53:18.230Z,73.50
2022-09-15T09:55:45.920Z,73.50
2022-09-15T09:58:19.182Z,73.30
2022-09-15T10:00:47.124Z,73.30
2022-09-15T10:03:29.401Z,73.40
2022-09-15T10:06:14.147Z,73.60
2022-09-15T10:09:08.878Z,73.80
2022-09-15T10:12:01.042Z,74.00
2022-09-15T10:14:41.835Z,73.20
2022-09-15T10:17:22.595Z,73.10
2022-09-15T10:19:58.026Z,73.70
2022-09-15T10:22:38.194Z,73.50
2022-09-15T10:25:39.474Z,73.50
2022-09-15T10:28:17.736Z,73.50
2022-09-15T10:31:10.869Z,73.50
2022-09-15T10:33:44.824Z,73.70
2022-09-15T10:36:32.123Z,73.40
2022-09-15T10:39:32.251Z,73.20
2022-09-15T10:42:17.622Z,72.90
2022-09-15T10:45:23.426Z,72.30
2022-09-15T10:48:30.231Z,72.10
2022-09-15T10:51:40.342Z,71.40
2022-09-15T10:54:41.191Z,70.50
2022-09-15T11:00:20.994Z,70.50
2022-09-15T11:03:24.374Z,69.00
2022-09-15T11:06:05.933Z,68.90
2022-09-15T11:08:50.593Z,68.80
2022-09-15T11:11:42.021Z,68.90
2022-09-15T11:14:43.102Z,69.30
2022-09-15T11:17:35.062Z,69.10
2022-09-15T11:20:35.429Z,69.10
2022-09-15T11:23:32.776Z,69.30
2022-09-15T11:26:35.469Z,69.40
2022-09-15T11:29:37.482Z,69.70
2022-09-15T11:32:14.934Z,70.00
2022-09-15T11:34:56.887Z,70.00
2022-09-15T11:37:50.567Z,70.00
2022-09-15T11:40:22.786Z,69.80
2022-09-15T11:43:00.098Z,70.30
2022-09-15T11:45:35.315Z,70.40
2022-09-15T11:48:33.666Z,70.60
2022-09-15T11:51:03.253Z,70.70
2022-09-15T11:53:55.743Z,70.90
2022-09-15T11:56:42.198Z,70.70
2022-09-15T11:59:36.409Z,70.90
2022-09-15T12:02:28.281Z,71.00
2022-09-15T12:05:10.273Z,70.80
2022-09-15T12:08:10.112Z,71.00
2022-09-15T12:10:56.759Z,70.90
2022-09-15T12:13:26.161Z,71.00
2022-09-15T12:15:53.955Z,70.90
2022-09-15T12:19:06.946Z,70.80
2022-09-15T12:22:01.913Z,70.80
2022-09-15T12:24:45.793Z,70.70
2022-09-15T12:27:18.944Z,71.10
2022-09-15T12:30:00.510Z,71.30
2022-09-15T12:32:29.999Z,71.30
2022-09-15T12:35:17.822Z,71.60
2022-09-15T12:37:54.442Z,71.60
2022-09-15T12:40:42.393Z,71.50
2022-09-15T12:43:15.932Z,71.30
2022-09-15T12:45:55.386Z,71.50
2022-09-15T12:48:33.993Z,71.40
2022-09-15T12:51:10.791Z,71.10
2022-09-15T12:53:52.715Z,71.30
2022-09-15T12:56:31.087Z,71.00
2022-09-15T12:59:07.658Z,70.60
2022-09-15T13:01:50.977Z,71.00
2022-09-15T13:04:43.528Z,70.30
2022-09-15T13:07:16.404Z,70.00
2022-09-15T13:09:57.866Z,69.70
2022-09-15T13:12:33.648Z,70.00
2022-09-15T13:15:07.028Z,69.90
2022-09-15T13:17:34.879Z,70.10
2022-09-15T13:20:15.362Z,69.80
2022-09-15T13:22:51.521Z,69.20
2022-09-15T13:25:31.175Z,69.10
2022-09-15T13:28:03.578Z,68.90
2022-09-15T13:30:47.411Z,68.80
2022-09-15T13:40:42.390Z,68.70
2022-09-15T13:43:41.450Z,68.40
2022-09-15T13:46:49.025Z,68.40
2022-09-15T13:49:39.271Z,68.50
2022-09-15T13:52:20.702Z,68.50
2022-09-15T13:55:17.760Z,68.50
2022-09-15T14:00:49.075Z,68.30
2022-09-15T14:03:25.680Z,67.80
2022-09-15T14:05:54.268Z,68.00
2022-09-15T14:08:33.254Z,67.80
2022-09-15T14:11:08.235Z,66.90
2022-09-15T14:13:41.015Z,67.30
2022-09-15T14:16:37.845Z,67.90
2022-09-15T14:19:31.116Z,67.60
2022-09-15T14:21:58.817Z,66.30
2022-09-15T14:24:32.406Z,68.20
2022-09-15T14:27:07.267Z,67.80
2022-09-15T14:29:40.265Z,67.90
2022-09-15T14:32:11.443Z,68.00
2022-09-15T14:34:38.957Z,67.90
2022-09-15T14:37:08.062Z,67.20
2022-09-15T14:39:37.541Z,67.60
2022-09-15T14:42:32.424Z,67.50
2022-09-15T14:48:07.458Z,66.10
2022-09-15T14:50:35.520Z,66.80
2022-09-15T14:53:05.974Z,66.80
2022-09-15T14:56:04.371Z,66.40
2022-09-15T14:58:44.681Z,63.90
2022-09-15T15:01:25.540Z,64.90
2022-09-15T15:04:24.582Z,63.80
2022-09-15T15:07:22.619Z,63.20
2022-09-15T15:10:04.323Z,62.70
2022-09-15T15:12:37.176Z,63.10
2022-09-15T15:15:06.852Z,61.30
2022-09-15T15:17:39.894Z,62.00
2022-09-15T15:20:06.659Z,61.50
2022-09-15T15:22:34.128Z,62.00
2022-09-15T15:25:00.957Z,61.90
2022-09-15T15:27:33.914Z,61.60
2022-09-15T15:30:29.470Z,60.20
2022-09-15T15:33:19.701Z,58.50
2022-09-15T15:35:48.479Z,58.30
2022-09-15T15:38:19.463Z,60.20
2022-09-15T15:40:46.953Z,59.80
2022-09-15T15:43:13.639Z,59.70
2022-09-15T15:46:02.179Z,59.70
2022-09-15T15:48:37.861Z,58.50
2022-09-15T15:51:07.359Z,59.30
2022-09-15T15:53:34.425Z,60.00
2022-09-15T15:56:01.818Z,59.90
2022-09-15T15:58:28.591Z,59.60
2022-09-15T16:00:57.031Z,59.90
2022-09-15T16:03:25.585Z,59.50
2022-09-15T16:05:59.673Z,59.80
2022-09-15T16:08:38.685Z,59.30
2022-09-15T16:11:09.693Z,59.40
2022-09-15T16:13:36.529Z,60.30
2022-09-15T16:16:23.961Z,60.20
2022-09-15T16:18:51.204Z,59.30
2022-09-15T16:21:38.274Z,60.10
2022-09-15T16:24:09.750Z,60.40
2022-09-15T16:26:36.579Z,60.30
2022-09-15T16:29:03.424Z,60.40
2022-09-15T16:31:31.650Z,60.40
2022-09-15T16:33:58.617Z,60.60
2022-09-15T16:36:26.584Z,60.50
2022-09-15T16:38:53.648Z,60.60
2022-09-15T16:41:25.727Z,60.60
2022-09-15T16:44:02.535Z,60.50
2022-09-15T16:46:29.757Z,60.80
2022-09-15T16:48:57.228Z,60.90
2022-09-15T16:51:29.911Z,60.90
2022-09-15T16:53:58.831Z,60.70
2022-09-15T16:56:26.966Z,61.10
2022-09-15T16:58:59.546Z,61.20
2022-09-15T17:01:27.641Z,61.30
2022-09-15T17:03:54.953Z,61.30
2022-09-15T17:06:22.165Z,61.30
2022-09-15T17:08:49.463Z,61.60
2022-09-15T17:11:19.920Z,61.50
2022-09-15T17:13:47.481Z,61.60
2022-09-15T17:16:19.400Z,61.70
2022-09-15T17:18:46.881Z,61.40
2022-09-15T17:21:16.426Z,61.70
2022-09-15T17:23:49.375Z,61.90
2022-09-15T17:26:24.000Z,62.00
2022-09-15T17:28:53.426Z,62.20
2022-09-15T17:31:23.492Z,62.30
2022-09-15T17:33:51.590Z,62.50
2022-09-15T17:36:18.914Z,62.70
2022-09-15T17:38:45.987Z,62.80
2022-09-15T17:41:21.473Z,62.90
2022-09-15T17:43:48.348Z,63.10
2022-09-15T17:46:16.646Z,63.10
2022-09-15T17:48:43.530Z,63.20
2022-09-15T17:51:17.415Z,63.40
2022-09-15T17:53:46.703Z,63.60
2022-09-15T17:56:13.879Z,63.50
2022-09-15T17:58:41.385Z,63.80
2022-09-15T18:01:12.201Z,63.90
2022-09-15T18:03:39.338Z,64.00
2022-09-15T18:06:08.371Z,64.10
2022-09-15T18:08:36.336Z,64.30
2022-09-15T18:11:06.034Z,64.40
2022-09-15T18:13:34.023Z,64.40
2022-09-15T18:16:12.990Z,64.50
2022-09-15T18:18:40.861Z,64.90
2022-09-15T18:21:16.695Z,64.60
2022-09-15T18:23:45.044Z,64.60
2022-09-15T18:26:11.843Z,64.80
2022-09-15T18:28:38.648Z,64.90
2022-09-15T18:31:05.822Z,65.00
2022-09-15T18:33:32.626Z,65.10
2022-09-15T18:35:59.412Z,65.10
2022-09-15T18:38:27.794Z,65.10
2022-09-15T18:40:56.974Z,65.20
2022-09-15T18:43:27.155Z,65.30
2022-09-15T18:45:59.943Z,65.30
2022-09-15T18:48:27.407Z,65.60
2022-09-15T18:50:54.923Z,65.50
2022-09-15T18:53:21.939Z,65.70
2022-09-15T18:55:48.810Z,65.70
2022-09-15T18:58:15.721Z,65.90
2022-09-15T19:00:45.633Z,66.00
2022-09-15T19:03:14.001Z,66.10
2022-09-15T19:05:40.811Z,66.40
2022-09-15T19:08:09.115Z,66.60
2022-09-15T19:10:35.959Z,66.50
2022-09-15T19:13:02.766Z,66.60
2022-09-15T19:15:31.256Z,66.70
2022-09-15T19:17:58.092Z,66.70
2022-09-15T19:20:25.135Z,66.70
2022-09-15T19:22:51.961Z,66.80
2022-09-15T19:25:19.090Z,66.90
2022-09-15T19:27:47.820Z,67.10
2022-09-15T19:30:15.100Z,67.00
2022-09-15T19:32:43.178Z,67.20
2022-09-15T19:35:11.304Z,67.10
2022-09-15T19:37:40.770Z,67.20
2022-09-15T19:40:12.432Z,67.30
2022-09-15T19:42:41.567Z,67.30
2022-09-15T19:45:10.390Z,67.30
2022-09-15T19:47:38.651Z,67.20
2022-09-15T19:50:08.570Z,67.20
2022-09-15T19:52:35.811Z,67.20
2022-09-15T19:55:03.095Z,67.30
2022-09-15T19:57:29.858Z,67.30
2022-09-15T19:59:56.654Z,67.30
2022-09-15T20:02:23.471Z,67.40
2022-09-15T20:04:50.339Z,67.40
2022-09-15T20:07:17.161Z,67.60
2022-09-15T20:09:44.191Z,67.60
2022-09-15T20:12:11.173Z,67.50
2022-09-15T20:14:38.091Z,67.70
2022-09-15T20:17:05.422Z,67.60
2022-09-15T20:19:32.542Z,67.70
2022-09-15T20:21:59.408Z,67.70
2022-09-15T20:24:26.310Z,67.80
2022-09-15T20:26:53.750Z,68.40
2022-09-15T20:29:21.043Z,67.90
2022-09-15T20:31:48.425Z,67.80
2022-09-15T20:34:15.713Z,67.90
2022-09-15T20:36:44.443Z,67.90
2022-09-15T20:39:15.367Z,67.80
2022-09-15T20:41:45.960Z,67.80
2022-09-15T20:44:13.816Z,68.00
2022-09-15T20:46:40.864Z,68.10
2022-09-15T20:49:08.917Z,68.10
2022-09-15T20:51:35.777Z,68.10
2022-09-15T20:54:04.259Z,68.20
2022-09-15T20:56:34.998Z,68.20
2022-09-15T20:59:04.063Z,68.30
2022-09-15T21:01:37.444Z,68.40
2022-09-15T21:04:06.836Z,68.60
2022-09-15T21:06:34.529Z,68.50
2022-09-15T21:09:01.703Z,68.60
2022-09-15T21:11:29.599Z,68.40
2022-09-15T21:13:57.709Z,68.30
2022-09-15T21:16:27.875Z,68.50
2022-09-15T21:18:57.478Z,68.50
2022-09-15T21:21:31.273Z,68.70
2022-09-15T21:24:03.744Z,68.90
2022-09-15T21:27:00.724Z,68.70
2022-09-15T21:29:28.881Z,69.00
2022-09-15T21:31:56.383Z,68.70
2022-09-15T21:34:23.967Z,68.90
2022-09-15T21:36:51.772Z,68.90
2022-09-15T21:39:18.624Z,68.90
2022-09-15T21:41:45.459Z,69.00
2022-09-15T21:44:12.227Z,69.00
2022-09-15T21:46:39.769Z,69.10
2022-09-15T21:49:06.577Z,68.90
2022-09-15T21:51:33.437Z,68.90
2022-09-15T21:54:00.708Z,68.90
2022-09-15T21:56:29.645Z,69.00
2022-09-15T21:58:56.990Z,69.10
2022-09-15T22:01:30.652Z,69.60
2022-09-15T22:04:00.855Z,69.30
2022-09-15T22:06:34.439Z,69.10
2022-09-15T22:09:12.988Z,69.30
2022-09-15T22:11:40.001Z,69.10
2022-09-15T22:14:10.476Z,69.20
2022-09-15T22:16:40.551Z,69.20
2022-09-15T22:19:09.985Z,69.30
2022-09-15T22:21:41.492Z,69.50
2022-09-15T22:24:12.670Z,69.50
2022-09-15T22:26:41.105Z,69.70
2022-09-15T22:29:07.963Z,69.70
2022-09-15T22:31:35.927Z,69.80
2022-09-15T22:34:03.487Z,69.80
2022-09-15T22:36:31.786Z,69.80
2022-09-15T22:39:06.565Z,69.80
2022-09-15T22:41:38.656Z,69.80
2022-09-15T22:44:07.591Z,70.00
2022-09-15T22:46:34.854Z,69.80
2022-09-15T22:49:01.972Z,69.90
2022-09-15T22:51:29.074Z,69.90
2022-09-15T22:53:57.061Z,70.00
2022-09-15T22:56:26.028Z,69.90
2022-09-15T22:58:55.571Z,69.80
2022-09-15T23:01:27.692Z,69.90
2022-09-15T23:03:58.788Z,70.00
2022-09-15T23:06:31.077Z,70.00
2022-09-15T23:09:01.984Z,69.90
2022-09-15T23:11:32.838Z,70.00
2022-09-15T23:14:00.443Z,70.00
2022-09-15T23:16:28.430Z,70.00
2022-09-15T23:18:55.427Z,70.20
2022-09-15T23:21:22.762Z,70.70
2022-09-15T23:23:50.124Z,70.70
2022-09-15T23:26:21.991Z,70.20
2022-09-15T23:28:51.390Z,70.30
2022-09-15T23:31:19.503Z,70.30
2022-09-15T23:33:47.580Z,70.30
2022-09-15T23:36:21.821Z,70.20
2022-09-15T23:38:49.569Z,70.50
2022-09-15T23:41:17.611Z,70.40
2022-09-15T23:43:45.181Z,70.40
2022-09-15T23:46:12.714Z,70.20
2022-09-15T23:48:39.543Z,70.30
2022-09-15T23:51:06.377Z,70.00
2022-09-15T23:53:34.175Z,70.20
2022-09-15T23:56:01.499Z,70.20
2022-09-15T23:58:28.377Z,70.40
